x

Ne Puerto Rico - 170 Nm Nne Of San Juan, P R (41043) Wave Buoy

3:50am - Fri 29th Aug 2014 All times are AST. -4 hours from GMT.

  • Sig Wave height 6.2ft
  • Swell Direction
  • Peak Period 10s
  • Average Period 6s
  • Wind
    16mph, 20mph gusts
  • Sea Temp 84°f
  • Air Temp 83°f
  • Sea Pressure 1017.1mb
  • Ne Puerto Rico  - 170 Nm Nne Of San Juan,  P R
  • Ne Puerto Rico  - 170 Nm Nne Of San Juan,  P R

More Historic Weather Station data

Upgrade to MSW Pro to gain access to the past 30 days of data for over 8000 Wavebouys and Weather Stations around the globe.

Join Pro

Comparision Forecast

View Surf forecast
   
Fri 08/29 3:50am 6ft 10s 6s 16 20 mph 1017.1mb 84f 83f
2:50am 6ft 9s 6s 16 18 mph 1017.2mb 84f 83f
1:50am 6.5ft 9s 6s 16 20 mph 1017.3mb 84f 83f
12:50am 7ft 9s 6s 18 20 mph 1017.9mb 84f 83f
Thu 08/28 11:50pm 7.5ft 8s 6s 18 20 mph 1018.4mb 84f 83f
10:50pm 8ft 9s 7s 16 20 mph 1018.4mb 84f 83f
9:50pm 8ft 10s 7s 18 20 mph 1018.3mb 84f 84f
8:50pm 8ft 9s 7s 18 20 mph 1018mb 84f 84f
7:50pm 8ft 10s 7s 16 20 mph 1017.4mb 84f 84f
6:50pm 7.5ft 9s 7s 18 20 mph 1017.1mb 84f 84f
5:50pm 7.5ft 9s 7s 16 18 mph 1016.6mb 84f 84f
4:50pm 7.5ft 8s 7s 16 20 mph 1016.1mb 84f 84f
3:50pm 7ft 9s 6s 18 22 mph 1016.2mb 84f 84f
2:50pm 7.5ft 9s 6s 18 22 mph 1016.8mb 84f 84f
1:50pm 8ft 10s 7s 18 20 mph 1017mb 84f 84f
12:50pm 8ft 9s 6s 18 22 mph 1017.8mb 84f 84f
11:50am 8ft 9s 7s 18 22 mph 1018.2mb 84f 84f
10:50am 8ft 9s 7s 18 20 mph 1018.5mb 84f 84f
9:50am 8ft 9s 6s 18 22 mph 1018.4mb 84f 84f
8:50am 7.5ft 9s 6s 18 22 mph 1018.2mb 84f 84f
7:50am 8ft 9s 7s 18 22 mph 1017.8mb 84f 83f
6:50am 7ft 9s 6s 20 22 mph 1017.2mb 83f 83f
5:50am 7ft 9s 6s 18 22 mph 1016.7mb 83f 83f
4:50am 7ft 9s 6s 18 20 mph 1016.8mb 83f 83f
3:50am 6.5ft 8s 6s 18 22 mph 1016.7mb 84f 83f
2:50am 7.5ft 8s 6s 18 22 mph 1016.8mb 84f 83f
1:50am 7ft 8s 6s 20 22 mph 1017.7mb 84f 84f
12:50am 7.5ft 8s 6s 20 25 mph 1018.5mb 84f 84f
Wed 08/27 11:50pm 6.5ft 8s 6s 20 25 mph 1018.9mb 84f 84f
10:50pm 7ft 8s 6s 20 25 mph 1019.5mb 84f 84f
9:50pm 6ft 8s 6s 18 20 mph 1019.4mb 84f 84f
8:50pm 6.5ft 8s 6s 18 20 mph 1019mb 84f 84f
7:50pm 6.5ft 8s 6s 18 22 mph 1018.6mb 84f 84f
5:50pm 6.5ft 8s 6s 20 22 mph 1017.5mb 84f 84f
4:50pm 6.5ft 8s 6s 18 20 mph 1016.9mb 84f 84f
3:50pm 6.5ft 8s 6s 20 22 mph 1017.1mb 84f 84f
2:50pm 6.5ft 8s 6s 18 22 mph 1017.4mb 84f 84f
1:50pm 7ft 8s 6s 18 22 mph 1017.8mb 84f 84f
12:50pm 6.5ft 8s 6s 20 22 mph 1018.3mb 84f 84f
11:50am 6.5ft 8s 6s 20 22 mph 1019mb 84f 84f
10:50am 6ft 8s 6s 16 20 mph 1019.3mb 84f 84f
9:50am 6.5ft 8s 6s 18 20 mph 1019.2mb 83f 84f
8:50am 6ft 7s 6s 18 20 mph 1019.1mb 83f 84f
7:50am 6ft 8s 6s 16 20 mph 1018.7mb 83f 84f
6:50am 6ft 7s 6s 13 18 mph 1018mb 83f 83f
5:50am 6ft 8s 6s 16 20 mph 1017.4mb 83f 83f
4:50am 6ft 8s 6s 18 20 mph 1017.3mb 83f 84f
3:50am 6ft 8s 6s 18 20 mph 1017.1mb 83f 83f
2:50am 6.5ft 7s 6s 18 22 mph 1017.3mb 84f 83f
1:50am 6ft 7s 6s 18 20 mph 1017.6mb 84f 84f
12:50am 6ft 7s 6s 18 22 mph 1018.2mb 84f 84f
Tue 08/26 11:50pm 6ft 8s 6s 18 22 mph 1018.7mb 84f 84f
10:50pm 6ft 8s 6s 20 22 mph 1018.5mb 84f 84f
9:50pm 6ft 7s 6s 20 22 mph 1018.5mb 84f 84f
8:50pm 6ft 7s 6s 16 20 mph 1017.9mb 84f 84f
7:50pm 6ft 7s 6s 18 22 mph 1017.2mb 84f 84f
6:50pm 6ft 7s 6s 16 18 mph 1016.8mb 84f 84f
5:50pm 5.5ft 7s 5s 20 22 mph 1015.9mb 84f 84f
4:50pm 6ft 7s 6s 18 22 mph 1015.7mb 84f 84f
3:50pm 6ft 7s 5s 18 25 mph 1015.6mb 84f 84f
2:50pm 6ft 7s 5s 18 22 mph 1015.8mb 84f 84f
1:50pm 6ft 8s 5s 18 20 mph 1016.5mb 84f 84f
12:50pm 6ft 7s 5s 18 20 mph 1016.7mb 84f 84f
11:50am 6ft 7s 5s 20 22 mph 1017mb 84f 84f
10:50am 6ft 7s 5s 18 22 mph 1016.8mb 84f 84f
9:50am 6.5ft 7s 6s 20 22 mph 1016.8mb 84f 84f
8:50am 6ft 6s 5s 22 27 mph 1016.1mb 84f 84f
7:50am 6.5ft 7s 5s 20 22 mph 1015.6mb 83f 84f
6:50am 7ft 7s 5s 25 29 mph 1014.4mb 83f 84f
5:50am 6ft 7s 5s 25 31 mph 1014mb 83f 83f
4:50am 6.5ft 7s 5s 22 27 mph 1014.1mb 83f 84f
3:50am 6ft 7s 5s 18 20 mph 1014mb 83f 83f
2:50am 6ft 7s 5s 22 25 mph 1013.6mb 84f 83f
1:50am 5.5ft 7s 5s 20 25 mph 1013.5mb 84f 83f
12:50am 5ft 6s 5s 20 25 mph 1013.8mb 84f 83f
Mon 08/25 11:50pm 5.5ft 7s 5s 22 27 mph 1013.9mb 84f 84f
10:50pm 6ft 7s 5s 20 25 mph 1013.9mb 84f 84f
9:50pm 5ft 6s 5s 20 25 mph 1014mb 84f 84f
8:50pm 5ft 7s 5s 18 20 mph 1013.9mb 84f 84f
7:50pm 5.5ft 7s 5s 18 20 mph 1013mb 84f 84f
6:50pm 6ft 7s 5s 22 25 mph 1012.1mb 84f 84f
5:50pm 5.5ft 7s 5s 20 25 mph 1011.4mb 84f 84f
4:50pm 5ft 6s 5s 20 22 mph 1011.6mb 84f 84f
3:50pm 6ft 6s 5s 20 25 mph 1011.6mb 84f 84f
2:50pm 5ft 6s 5s 20 22 mph 1011.7mb 84f 84f
1:50pm 5ft 6s 5s 20 25 mph 1012.2mb 84f 84f
12:50pm 5ft 6s 5s 22 27 mph 1012.3mb 84f 84f
11:50am 5ft 6s 5s 22 27 mph 1013mb 84f 83f
10:50am 5ft 6s 5s 20 25 mph 1013.3mb 84f 83f
9:50am 5ft 6s 5s 18 20 mph 1013.3mb 84f 83f